createdAt,value
2023-05-03T00:01:00.991Z,103147.53
2023-05-03T00:03:28.727Z,103160.97
2023-05-03T00:05:55.365Z,103145.78
2023-05-03T00:08:22.114Z,103140.41
2023-05-03T00:10:48.685Z,103144.03
2023-05-03T00:13:15.289Z,103152.13
2023-05-03T00:15:41.805Z,103146.78
2023-05-03T00:18:08.852Z,103141.44
2023-05-03T00:20:35.623Z,103145.03
2023-05-03T00:23:02.192Z,103140.63
2023-05-03T00:25:28.817Z,103145.13
2023-05-03T00:27:55.519Z,103141.56
2023-05-03T00:30:22.004Z,103146.06
2023-05-03T00:32:48.728Z,103149.69
2023-05-03T00:35:15.248Z,103153.25
2023-05-03T00:37:41.750Z,103149.72
2023-05-03T00:40:08.905Z,103144.38
2023-05-03T00:42:36.985Z,103151.56
2023-05-03T00:45:06.111Z,103146.22
2023-05-03T00:47:33.776Z,103142.69
2023-05-03T00:50:02.462Z,103146.28
2023-05-03T00:52:30.236Z,103150.78
2023-05-03T00:55:00.661Z,103146.31
2023-05-03T00:57:29.546Z,103149.94
2023-05-03T00:59:57.540Z,103152.66
2023-05-03T01:02:25.263Z,103148.19
2023-05-03T01:04:54.823Z,103146.44
2023-05-03T01:07:39.890Z,103150.03
2023-05-03T01:10:07.002Z,103145.56
2023-05-03T01:12:33.580Z,103146.50
2023-05-03T01:15:12.492Z,103151.00
2023-05-03T01:17:50.620Z,103151.03
2023-05-03T01:20:25.091Z,103150.16
2023-05-03T01:23:05.453Z,103152.84
2023-05-03T01:25:34.211Z,103145.69
2023-05-03T01:28:01.547Z,103147.53
2023-05-03T01:30:31.938Z,103149.31
2023-05-03T01:33:07.665Z,103148.44
2023-05-03T01:35:58.605Z,103147.56
2023-05-03T01:38:27.243Z,103140.44
2023-05-03T01:40:58.421Z,103144.94
2023-05-03T01:43:25.925Z,103150.31
2023-05-03T01:45:52.606Z,103150.31
2023-05-03T01:48:20.010Z,103141.41
2023-05-03T01:50:47.011Z,103146.75
2023-05-03T01:53:13.803Z,103145.03
2023-05-03T01:55:42.754Z,103139.66
2023-05-03T01:58:09.460Z,103145.03
2023-05-03T02:00:35.936Z,103143.28
2023-05-03T02:03:02.518Z,103144.19
2023-05-03T02:05:29.136Z,103135.25
2023-05-03T02:07:55.853Z,103138.84
2023-05-03T02:10:22.384Z,103137.06
2023-05-03T02:12:48.889Z,103137.97
2023-05-03T02:15:15.591Z,103138.88
2023-05-03T02:17:42.997Z,103129.97
2023-05-03T02:20:12.688Z,103127.28
2023-05-03T02:22:39.375Z,103124.59
2023-05-03T02:25:07.208Z,103121.06
2023-05-03T02:27:33.930Z,103119.28
2023-05-03T02:30:01.365Z,103116.63
2023-05-03T02:32:28.430Z,103110.38
2023-05-03T02:34:55.246Z,103114.84
2023-05-03T02:37:21.947Z,103113.97
2023-05-03T02:39:48.468Z,103107.75
2023-05-03T02:42:15.151Z,103103.25
2023-05-03T02:44:41.742Z,103105.06
2023-05-03T02:47:08.990Z,103101.47
2023-05-03T02:49:35.802Z,103097.03
2023-05-03T02:52:02.353Z,103095.22
2023-05-03T02:54:28.940Z,103094.34
2023-05-03T02:56:55.694Z,103093.47
2023-05-03T02:59:22.332Z,103094.38
2023-05-03T03:01:49.665Z,103102.44
2023-05-03T03:04:16.329Z,103097.06
2023-05-03T03:06:42.891Z,103101.56
2023-05-03T03:09:09.560Z,103111.41
2023-05-03T03:11:36.397Z,103108.72
2023-05-03T03:14:02.983Z,103114.97
2023-05-03T03:16:29.681Z,103110.50
2023-05-03T03:18:56.629Z,103113.19
2023-05-03T03:21:23.401Z,103117.66
2023-05-03T03:23:49.938Z,103120.34
2023-05-03T03:26:16.515Z,103118.53
2023-05-03T03:28:43.125Z,103120.34
2023-05-03T03:31:09.886Z,103122.16
2023-05-03T03:33:36.434Z,103118.59
2023-05-03T03:36:02.985Z,103118.59
2023-05-03T03:38:29.446Z,103121.25
2023-05-03T03:40:56.113Z,103113.25
2023-05-03T03:43:22.684Z,103115.00
2023-05-03T03:45:49.387Z,103122.16
2023-05-03T03:48:15.930Z,103129.28
2023-05-03T03:50:42.625Z,103130.19
2023-05-03T03:53:11.157Z,103135.56
2023-05-03T03:55:40.657Z,103144.47
2023-05-03T03:58:07.272Z,103141.81
2023-05-03T04:00:37.120Z,103141.78
2023-05-03T04:03:08.107Z,103139.13
2023-05-03T04:05:35.133Z,103144.47
2023-05-03T04:08:05.131Z,103141.81
2023-05-03T04:10:34.669Z,103143.56
2023-05-03T04:13:07.323Z,103140.00
2023-05-03T04:15:33.832Z,103131.09
2023-05-03T04:18:00.625Z,103143.59
2023-05-03T04:20:27.200Z,103142.69
2023-05-03T04:22:56.399Z,103140.88
2023-05-03T04:25:25.564Z,103150.72
2023-05-03T04:31:01.204Z,103156.94
2023-05-03T04:33:30.007Z,103167.63
2023-05-03T04:35:59.294Z,103172.06
2023-05-03T04:38:25.980Z,103169.41
2023-05-03T04:40:55.204Z,103175.63
2023-05-03T04:43:29.594Z,103183.66
2023-05-03T04:45:57.046Z,103176.50
2023-05-03T04:48:23.624Z,103180.97
2023-05-03T04:50:59.115Z,103188.09
2023-05-03T04:53:26.530Z,103192.53
2023-05-03T04:55:53.179Z,103194.34
2023-05-03T04:58:19.712Z,103191.63
2023-05-03T05:00:46.519Z,103197.00
2023-05-03T05:03:13.219Z,103189.88
2023-05-03T05:05:40.927Z,103188.06
2023-05-03T05:08:08.827Z,103187.19
2023-05-03T05:10:40.257Z,103188.97
2023-05-03T05:13:07.152Z,103185.38
2023-05-03T05:15:33.806Z,103191.63
2023-05-03T05:18:01.049Z,103193.44
2023-05-03T05:20:27.641Z,103194.31
2023-05-03T05:22:54.251Z,103191.63
2023-05-03T05:25:23.150Z,103195.19
2023-05-03T05:30:37.424Z,103197.00
2023-05-03T06:15:37.211Z,103208.69
2023-05-03T06:18:06.707Z,103206.91
2023-05-03T06:59:05.917Z,103179.13
2023-05-03T07:01:59.618Z,103180.00
2023-05-03T07:04:31.236Z,103185.31
2023-05-03T07:07:05.754Z,103182.66
2023-05-03T07:09:44.662Z,103184.38
2023-05-03T07:12:12.222Z,103178.13
2023-05-03T07:14:53.552Z,103176.28
2023-05-03T07:17:25.141Z,103178.03
2023-05-03T07:20:08.308Z,103175.31
2023-05-03T07:26:29.456Z,103166.28
2023-05-03T09:23:59.623Z,103128.75
2023-05-03T09:26:37.439Z,103114.25
2023-05-03T09:29:05.325Z,103116.81
2023-05-03T09:31:33.347Z,103108.59
2023-05-03T09:34:00.750Z,103113.84
2023-05-03T09:36:27.821Z,103119.09
2023-05-03T09:38:55.532Z,103121.69
2023-05-03T09:41:29.380Z,103117.06
2023-05-03T09:43:56.877Z,103125.00
2023-05-03T09:46:28.582Z,103112.19
2023-05-03T09:48:57.028Z,103121.94
2023-05-03T09:51:24.469Z,103120.03
2023-05-03T09:53:51.297Z,103119.03
2023-05-03T09:56:20.744Z,103120.75
2023-05-03T09:58:47.293Z,103121.47
2023-05-03T10:01:16.222Z,103107.78
2023-05-03T10:03:57.643Z,103114.81
2023-05-03T10:06:40.030Z,103115.63
2023-05-03T10:09:16.586Z,103103.78
2023-05-03T10:11:48.618Z,103098.28
2023-05-03T10:14:15.269Z,103105.41
2023-05-03T10:16:47.624Z,103093.53
2023-05-03T10:19:27.591Z,103096.16
2023-05-03T10:22:07.283Z,103096.84
2023-05-03T10:24:57.929Z,103088.56
2023-05-03T10:27:24.721Z,103084.81
2023-05-03T10:29:52.288Z,103078.41
2023-05-03T10:32:43.313Z,103068.34
2023-05-03T10:35:14.049Z,103072.66
2023-05-03T10:37:42.469Z,103074.31
2023-05-03T10:44:18.124Z,103074.13
2023-05-03T10:49:28.608Z,103072.13
2023-05-03T10:50:53.090Z,103074.63
2023-05-03T10:54:03.210Z,103081.63
2023-05-03T10:56:50.314Z,103073.34
2023-05-03T10:59:59.185Z,103068.69
2023-05-03T11:02:50.343Z,103071.31
2023-05-03T11:05:40.990Z,103064.91
2023-05-03T11:08:33.627Z,103063.91
2023-05-03T11:11:26.326Z,103062.00
2023-05-03T11:14:11.199Z,103056.44
2023-05-03T11:17:03.619Z,103050.06
2023-05-03T11:26:45.327Z,103032.31
2023-05-03T11:29:31.365Z,103024.06
2023-05-03T11:32:00.431Z,103029.47
2023-05-03T11:34:34.988Z,103031.22
2023-05-03T11:37:07.637Z,103026.56
2023-05-03T11:39:36.826Z,103015.50
2023-05-03T11:45:04.730Z,103013.47
2023-05-03T11:47:52.017Z,103016.81
2023-05-03T11:51:32.608Z,103011.22
2023-05-03T11:54:20.913Z,103004.75
2023-05-03T11:57:41.901Z,102992.91
2023-05-03T11:59:43.601Z,102990.06
2023-05-03T12:02:18.066Z,103004.25
2023-05-03T12:07:35.849Z,102992.06
2023-05-03T12:10:33.054Z,102982.88
2023-05-03T13:19:57.912Z,102880.50
2023-05-03T13:23:33.072Z,102882.00
2023-05-03T13:29:48.916Z,102867.63
2023-05-03T13:41:48.924Z,102861.88
2023-05-03T13:53:27.330Z,102839.53
2023-05-03T13:55:54.703Z,102836.44
2023-05-03T13:58:23.754Z,102831.56
2023-05-03T14:00:50.531Z,102839.44
2023-05-03T14:03:20.817Z,102821.94
2023-05-03T14:05:50.024Z,102833.47
2023-05-03T14:08:17.161Z,102826.88
2023-05-03T14:11:06.344Z,102825.63
2023-05-03T14:18:17.341Z,102810.28
2023-05-03T14:20:50.889Z,102807.22
2023-05-03T14:23:20.650Z,102804.13
2023-05-03T14:25:47.349Z,102804.69
2023-05-03T14:28:20.705Z,102799.03
2023-05-03T14:34:08.594Z,102792.25
2023-05-03T14:36:43.688Z,102789.22
2023-05-03T14:56:43.401Z,102770.06
2023-05-03T14:59:05.414Z,102770.59
2023-05-03T15:06:01.825Z,102757.16
2023-05-03T15:08:28.770Z,102752.34
2023-05-03T15:10:58.064Z,102739.34
2023-05-03T15:13:25.220Z,102734.75
2023-05-03T15:15:56.457Z,102743.56
2023-05-03T15:18:24.017Z,102742.50
2023-05-03T15:20:53.324Z,102736.03
2023-05-03T15:23:20.381Z,102737.69
2023-05-03T15:25:52.653Z,102727.56
2023-05-03T15:28:20.648Z,102731.09
2023-05-03T15:30:48.548Z,102733.72
2023-05-03T15:33:19.470Z,102740.00
2023-05-03T15:35:48.516Z,102732.72
2023-05-03T15:38:15.191Z,102729.91
2023-05-03T15:40:41.665Z,102729.81
2023-05-03T15:43:08.336Z,102732.44
2023-05-03T15:45:35.661Z,102730.59
2023-05-03T15:48:02.990Z,102724.00
2023-05-03T15:50:30.137Z,102729.47
2023-05-03T15:52:59.392Z,102732.00
2023-05-03T15:55:29.189Z,102731.06
2023-05-03T15:57:57.099Z,102735.56
2023-05-03T16:00:25.904Z,102729.09
2023-05-03T16:13:05.778Z,102716.59
2023-05-03T16:15:41.480Z,102713.16
2023-05-03T16:46:43.671Z,102697.03
2023-05-03T16:53:16.180Z,102694.81
2023-05-03T16:56:58.074Z,102699.53
2023-05-03T17:22:15.955Z,102684.66
2023-05-03T17:29:22.547Z,102682.47
2023-05-03T17:31:51.402Z,102674.47
2023-05-03T17:34:29.756Z,102671.03
2023-05-03T17:37:43.671Z,102668.47
2023-05-03T17:40:16.596Z,102669.59
2023-05-03T17:43:07.840Z,102674.31
2023-05-03T17:45:51.311Z,102668.16
2023-05-03T17:51:23.171Z,102666.00
2023-05-03T17:54:10.554Z,102661.59
2023-05-03T17:57:01.945Z,102662.78
2023-05-03T17:59:49.986Z,102667.50
2023-05-03T18:02:22.356Z,102675.94
2023-05-03T18:04:58.259Z,102673.44
2023-05-03T18:07:27.820Z,102680.88
2023-05-03T18:10:00.658Z,102680.16
2023-05-03T18:13:09.587Z,102677.66
2023-05-03T18:15:56.165Z,102676.16
2023-05-03T18:18:36.275Z,102668.22
2023-05-03T18:24:06.002Z,102671.47
2023-05-03T18:27:33.853Z,102672.66
2023-05-03T18:48:00.320Z,102673.53
2023-05-03T19:05:02.784Z,102695.84
2023-05-03T19:07:50.016Z,102699.72
2023-05-03T19:12:14.534Z,102705.38
2023-05-03T19:19:03.203Z,102690.72
2023-05-03T20:00:56.031Z,102699.53
2023-05-03T21:55:00.499Z,102660.00
2023-05-03T21:58:07.198Z,102656.63
2023-05-03T22:01:34.048Z,102657.66
2023-05-03T22:04:00.734Z,102649.66
2023-05-03T22:06:27.506Z,102642.66
2023-05-03T22:08:54.038Z,102634.66
2023-05-03T22:11:21.173Z,102636.63
2023-05-03T22:14:03.190Z,102637.63
2023-05-03T22:16:30.158Z,102637.72
2023-05-03T22:18:56.945Z,102634.28
2023-05-03T22:21:23.394Z,102638.03
2023-05-03T22:23:49.981Z,102632.78
2023-05-03T22:26:16.450Z,102640.97
2023-05-03T22:28:42.938Z,102627.63
2023-05-03T22:31:09.421Z,102634.00
2023-05-03T22:33:35.946Z,102626.97
2023-05-03T22:36:02.427Z,102632.41
2023-05-03T22:38:28.927Z,102629.84
2023-05-03T22:40:55.453Z,102628.16
2023-05-03T22:43:22.026Z,102621.94
2023-05-03T22:45:48.514Z,102624.75
2023-05-03T22:48:14.969Z,102625.75
2023-05-03T22:50:41.604Z,102616.84
2023-05-03T22:53:08.149Z,102617.84
2023-05-03T22:55:34.661Z,102619.75
2023-05-03T22:58:01.536Z,102614.47
2023-05-03T23:00:28.051Z,102621.69
2023-05-03T23:02:54.939Z,102615.50
2023-05-03T23:05:21.885Z,102617.44
2023-05-03T23:07:48.482Z,102612.13
2023-05-03T23:10:14.951Z,102613.97
2023-05-03T23:12:41.434Z,102615.84
2023-05-03T23:15:08.135Z,102613.28
2023-05-03T23:17:34.925Z,102611.53
2023-05-03T23:20:01.618Z,102608.97
2023-05-03T23:22:28.374Z,102604.56
2023-05-03T23:24:54.907Z,102604.63
2023-05-03T23:27:21.624Z,102596.59
2023-05-03T23:29:48.506Z,102601.19
2023-05-03T23:32:15.634Z,102598.63
2023-05-03T23:34:42.675Z,102594.22
2023-05-03T23:37:09.204Z,102595.22
2023-05-03T23:39:35.656Z,102599.81
2023-05-03T23:42:02.073Z,102607.03
2023-05-03T23:44:42.258Z,102600.84
2023-05-03T23:47:14.937Z,102591.97
2023-05-03T23:49:41.446Z,102592.03
2023-05-03T23:52:08.423Z,102588.53
2023-05-03T23:54:34.995Z,102576.00
2023-05-03T23:57:01.737Z,102581.50
2023-05-03T23:59:28.131Z,102572.59
